createdAt,value
2022-12-18T00:02:26.824Z,30.20
2022-12-18T00:05:14.858Z,25.00
2022-12-18T00:08:02.977Z,27.40
2022-12-18T00:11:07.031Z,29.50
2022-12-18T00:13:58.390Z,39.10
2022-12-18T00:16:47.411Z,40.60
2022-12-18T00:19:35.223Z,34.80
2022-12-18T00:22:23.222Z,29.90
2022-12-18T00:25:10.899Z,32.10
2022-12-18T00:27:58.524Z,24.30
2022-12-18T00:30:47.106Z,28.40
2022-12-18T00:33:36.966Z,27.90
2022-12-18T00:36:28.752Z,20.50
2022-12-18T00:39:16.431Z,30.80
2022-12-18T00:42:24.159Z,36.50
2022-12-18T00:45:13.187Z,31.80
2022-12-18T00:48:01.330Z,29.20
2022-12-18T00:50:52.261Z,32.50
2022-12-18T00:53:40.411Z,28.80
2022-12-18T00:56:28.332Z,30.50
2022-12-18T00:59:20.544Z,25.40
2022-12-18T01:02:08.137Z,31.40
2022-12-18T01:04:55.924Z,31.20
2022-12-18T01:07:43.915Z,39.50
2022-12-18T01:10:31.546Z,45.90
2022-12-18T01:13:19.653Z,41.90
2022-12-18T01:16:14.084Z,35.50
2022-12-18T01:19:02.405Z,33.70
2022-12-18T01:21:50.995Z,35.10
2022-12-18T01:24:38.701Z,35.40
2022-12-18T01:27:27.981Z,22.40
2022-12-18T01:30:16.107Z,43.00
2022-12-18T01:33:06.534Z,47.30
2022-12-18T01:35:54.614Z,46.00
2022-12-18T01:38:42.648Z,39.30
2022-12-18T01:41:52.977Z,35.70
2022-12-18T01:45:04.524Z,37.50
2022-12-18T01:48:07.762Z,34.20
2022-12-18T01:50:57.124Z,31.40
2022-12-18T01:53:46.206Z,37.20
2022-12-18T01:56:33.681Z,42.60
2022-12-18T01:59:21.765Z,48.60
2022-12-18T02:02:10.247Z,44.30
2022-12-18T02:04:58.063Z,39.70
2022-12-18T02:08:29.430Z,44.60
2022-12-18T02:11:35.559Z,45.00
2022-12-18T02:15:00.033Z,65.40
2022-12-18T02:18:03.050Z,132.80
2022-12-18T02:21:26.962Z,101.70
2022-12-18T02:24:47.830Z,79.90
2022-12-18T02:27:40.369Z,73.70
2022-12-18T02:30:32.890Z,58.10
2022-12-18T02:33:26.074Z,46.50
2022-12-18T02:36:17.463Z,53.40
2022-12-18T02:39:09.093Z,35.80
2022-12-18T02:41:59.089Z,34.80
2022-12-18T02:44:50.981Z,32.80
2022-12-18T02:47:49.099Z,38.90
2022-12-18T02:50:46.406Z,33.60
2022-12-18T02:53:46.751Z,27.30
2022-12-18T02:57:04.599Z,29.90
2022-12-18T03:00:05.098Z,32.50
2022-12-18T03:03:06.199Z,29.30
2022-12-18T03:06:02.835Z,23.70
2022-12-18T03:09:00.385Z,31.40
2022-12-18T03:12:16.747Z,33.10
2022-12-18T03:15:24.489Z,29.70
2022-12-18T03:18:30.665Z,25.80
2022-12-18T03:21:28.471Z,32.00
2022-12-18T03:24:18.318Z,31.90
2022-12-18T03:27:13.602Z,18.20
2022-12-18T03:30:13.811Z,28.80
2022-12-18T03:33:13.190Z,29.80
2022-12-18T03:36:04.290Z,26.00
2022-12-18T03:38:52.731Z,25.60
2022-12-18T03:42:13.547Z,21.50
2022-12-18T03:45:19.819Z,24.70
2022-12-18T03:48:23.874Z,24.40
2022-12-18T03:51:53.911Z,23.10
2022-12-18T03:54:44.098Z,25.70
2022-12-18T03:57:35.460Z,28.20
2022-12-18T04:00:24.601Z,32.50
2022-12-18T04:03:25.450Z,24.10
2022-12-18T04:06:16.482Z,25.70
2022-12-18T04:09:05.819Z,24.00
2022-12-18T04:11:56.140Z,23.90
2022-12-18T04:14:44.899Z,28.20
2022-12-18T04:17:34.945Z,27.60
2022-12-18T04:20:24.414Z,21.50
2022-12-18T04:23:12.338Z,34.00
2022-12-18T04:26:00.476Z,45.70
2022-12-18T04:28:59.606Z,39.70
2022-12-18T04:31:47.287Z,35.30
2022-12-18T04:34:34.751Z,25.70
2022-12-18T04:37:22.550Z,24.40
2022-12-18T04:40:11.833Z,21.60
2022-12-18T04:43:03.358Z,20.00
2022-12-18T04:45:50.969Z,18.90
2022-12-18T04:48:39.188Z,23.40
2022-12-18T04:51:27.029Z,26.40
2022-12-18T04:54:15.110Z,22.50
2022-12-18T04:57:02.527Z,21.50
2022-12-18T04:59:50.140Z,19.70
2022-12-18T05:02:38.139Z,17.20
2022-12-18T05:05:25.921Z,17.50
2022-12-18T05:08:13.534Z,16.30
2022-12-18T05:11:10.036Z,12.90
2022-12-18T05:13:58.332Z,19.90
2022-12-18T05:16:46.366Z,26.20
2022-12-18T05:19:34.192Z,24.70
2022-12-18T05:22:21.521Z,20.20
2022-12-18T05:25:09.756Z,18.70
2022-12-18T05:27:57.319Z,16.20
2022-12-18T05:30:54.867Z,16.30
2022-12-18T05:33:43.002Z,15.20
2022-12-18T05:36:31.051Z,15.40
2022-12-18T05:39:18.549Z,18.50
2022-12-18T05:42:06.072Z,19.20
2022-12-18T05:44:53.658Z,24.10
2022-12-18T05:47:41.258Z,20.60
2022-12-18T05:50:28.972Z,17.40
2022-12-18T05:53:22.274Z,17.30
2022-12-18T05:56:17.121Z,17.00
2022-12-18T05:59:04.790Z,16.10
2022-12-18T06:01:52.726Z,16.40
2022-12-18T06:04:40.515Z,15.50
2022-12-18T06:07:27.975Z,17.40
2022-12-18T06:10:15.566Z,21.60
2022-12-18T06:13:04.867Z,20.40
2022-12-18T06:15:52.722Z,18.20
2022-12-18T06:18:40.219Z,16.80
2022-12-18T06:21:29.975Z,15.60
2022-12-18T06:24:18.003Z,12.40
2022-12-18T06:27:06.709Z,15.90
2022-12-18T06:29:54.276Z,18.30
2022-12-18T06:32:42.064Z,15.40
2022-12-18T06:35:29.802Z,21.70
2022-12-18T06:38:17.372Z,24.00
2022-12-18T06:41:14.391Z,18.50
2022-12-18T06:44:02.055Z,17.30
2022-12-18T06:46:50.047Z,17.30
2022-12-18T06:49:37.980Z,14.60
2022-12-18T06:52:26.012Z,17.60
2022-12-18T06:55:13.642Z,15.00
2022-12-18T06:58:01.931Z,20.20
2022-12-18T07:00:50.759Z,24.50
2022-12-18T07:03:41.107Z,18.90
2022-12-18T07:06:29.353Z,22.90
2022-12-18T07:09:16.895Z,23.10
2022-12-18T07:12:06.049Z,19.70
2022-12-18T07:14:53.988Z,17.30
2022-12-18T07:17:41.476Z,20.50
2022-12-18T07:20:29.208Z,13.50
2022-12-18T07:23:16.601Z,19.60
2022-12-18T07:26:11.375Z,23.20
2022-12-18T07:28:59.542Z,23.00
2022-12-18T07:31:47.405Z,21.00
2022-12-18T07:34:36.532Z,21.30
2022-12-18T07:37:24.501Z,21.40
2022-12-18T07:40:13.114Z,24.20
2022-12-18T07:43:01.884Z,27.20
2022-12-18T07:45:51.737Z,20.70
2022-12-18T07:48:39.567Z,26.50
2022-12-18T07:51:27.301Z,23.30
2022-12-18T07:54:15.271Z,24.80
2022-12-18T07:57:02.800Z,24.40
2022-12-18T07:59:50.298Z,21.90
2022-12-18T08:02:38.384Z,22.00
2022-12-18T08:05:27.359Z,22.40
2022-12-18T08:08:15.369Z,19.80
2022-12-18T08:11:03.678Z,20.30
2022-12-18T08:13:52.027Z,19.10
2022-12-18T08:16:39.625Z,19.90
2022-12-18T08:19:27.546Z,20.10
2022-12-18T08:22:14.993Z,20.90
2022-12-18T08:25:05.671Z,21.80
2022-12-18T08:27:53.622Z,18.00
2022-12-18T08:30:41.814Z,21.30
2022-12-18T08:33:29.828Z,19.80
2022-12-18T08:36:18.395Z,21.00
2022-12-18T08:39:06.093Z,17.80
2022-12-18T08:42:12.448Z,19.10
2022-12-18T08:45:00.685Z,20.80
2022-12-18T08:47:48.579Z,21.60
2022-12-18T08:50:36.328Z,21.00
2022-12-18T08:53:25.185Z,19.80
2022-12-18T08:56:15.243Z,21.80
2022-12-18T08:59:03.517Z,22.20
2022-12-18T09:01:51.378Z,23.00
2022-12-18T09:04:41.074Z,19.30
2022-12-18T09:07:28.890Z,22.90
2022-12-18T09:10:16.590Z,22.30
2022-12-18T09:13:05.799Z,22.60
2022-12-18T09:15:55.587Z,21.60
2022-12-18T09:18:44.009Z,21.70
2022-12-18T09:21:36.976Z,20.80
2022-12-18T09:24:25.508Z,22.00
2022-12-18T09:27:13.499Z,21.90
2022-12-18T09:30:01.879Z,21.10
2022-12-18T09:32:49.890Z,18.30
2022-12-18T09:35:39.390Z,20.30
2022-12-18T09:38:27.001Z,19.20
2022-12-18T09:41:45.928Z,19.80
2022-12-18T09:44:47.171Z,17.10
2022-12-18T09:47:40.405Z,17.10
2022-12-18T09:50:36.402Z,18.10
2022-12-18T09:53:32.607Z,17.70
2022-12-18T09:56:25.959Z,18.50
2022-12-18T09:59:41.143Z,18.60
2022-12-18T10:02:33.695Z,19.10
2022-12-18T10:05:42.469Z,20.00
2022-12-18T10:08:54.820Z,16.00
2022-12-18T10:12:10.189Z,16.70
2022-12-18T10:15:16.154Z,19.90
2022-12-18T10:18:09.521Z,19.20
2022-12-18T10:21:11.235Z,19.90
2022-12-18T10:24:30.402Z,19.60
2022-12-18T10:27:26.894Z,19.10
2022-12-18T10:30:22.816Z,18.90
2022-12-18T10:33:24.625Z,17.50
2022-12-18T10:36:12.710Z,17.70
2022-12-18T10:39:19.432Z,17.90
2022-12-18T10:42:20.904Z,19.60
2022-12-18T10:45:17.354Z,18.10
2022-12-18T10:48:05.574Z,18.40
2022-12-18T10:51:12.294Z,19.00
2022-12-18T10:54:07.731Z,19.30
2022-12-18T10:57:15.502Z,17.40
2022-12-18T11:00:28.711Z,17.60
2022-12-18T11:03:40.823Z,19.80
2022-12-18T11:06:29.702Z,17.30
2022-12-18T11:09:27.255Z,19.80
2022-12-18T11:12:22.430Z,19.20
2022-12-18T11:15:30.994Z,17.70
2022-12-18T11:18:40.098Z,17.60
2022-12-18T11:21:27.862Z,18.50
2022-12-18T11:24:35.025Z,18.40
2022-12-18T11:27:22.849Z,20.00
2022-12-18T11:30:32.998Z,18.70
2022-12-18T11:33:22.891Z,17.20
2022-12-18T11:36:11.444Z,17.10
2022-12-18T11:39:03.113Z,19.10
2022-12-18T11:42:12.970Z,17.60
2022-12-18T11:45:13.919Z,19.30
2022-12-18T11:48:18.510Z,20.70
2022-12-18T11:51:15.366Z,23.50
2022-12-18T11:54:14.611Z,18.50
2022-12-18T11:57:31.762Z,20.50
2022-12-18T12:00:21.455Z,17.10
2022-12-18T12:03:12.332Z,18.80
2022-12-18T12:06:17.185Z,20.10
2022-12-18T12:10:10.035Z,21.00
2022-12-18T12:13:30.477Z,17.60
2022-12-18T12:16:52.800Z,19.30
2022-12-18T12:20:08.265Z,16.80
2022-12-18T12:23:31.251Z,16.90
2022-12-18T12:26:28.547Z,16.90
2022-12-18T12:29:44.148Z,17.40
2022-12-18T12:32:49.671Z,19.10
2022-12-18T12:36:06.510Z,17.50
2022-12-18T12:39:00.962Z,18.10
2022-12-18T12:42:07.691Z,16.70
2022-12-18T12:44:59.744Z,19.80
2022-12-18T12:47:51.127Z,17.00
2022-12-18T12:50:41.185Z,17.40
2022-12-18T12:53:37.248Z,15.00
2022-12-18T12:56:37.492Z,17.20
2022-12-18T13:00:18.163Z,16.60
2022-12-18T13:03:29.226Z,16.00
2022-12-18T13:06:39.271Z,15.00
2022-12-18T13:09:36.703Z,15.30
2022-12-18T13:12:42.886Z,16.80
2022-12-18T13:15:46.217Z,15.70
2022-12-18T13:18:35.083Z,14.30
2022-12-18T13:21:30.700Z,17.20
2022-12-18T13:24:32.315Z,15.90
2022-12-18T13:27:54.540Z,14.50
2022-12-18T13:31:01.387Z,15.90
2022-12-18T13:37:33.051Z,15.70
2022-12-18T13:40:49.136Z,13.10
2022-12-18T13:43:59.277Z,14.90
2022-12-18T13:46:49.843Z,14.90
2022-12-18T13:49:42.867Z,13.30
2022-12-18T13:52:38.604Z,13.30
2022-12-18T13:55:26.848Z,14.50
2022-12-18T13:58:14.651Z,18.90
2022-12-18T14:01:05.706Z,15.80
2022-12-18T14:04:26.479Z,12.80
2022-12-18T14:07:26.571Z,14.60
2022-12-18T14:13:38.431Z,17.00
2022-12-18T14:16:26.375Z,13.30
2022-12-18T14:19:18.775Z,17.20
2022-12-18T14:22:12.404Z,15.60
2022-12-18T14:25:24.796Z,18.10
2022-12-18T14:28:16.412Z,12.80
2022-12-18T14:31:04.293Z,17.90
2022-12-18T14:33:53.422Z,18.30
2022-12-18T14:36:41.415Z,17.90
2022-12-18T14:39:29.675Z,17.30
2022-12-18T14:42:17.475Z,17.20
2022-12-18T14:45:41.651Z,17.50
2022-12-18T14:48:43.144Z,19.50
2022-12-18T14:51:34.445Z,18.80
2022-12-18T14:54:24.396Z,17.80
2022-12-18T14:57:36.259Z,17.20
2022-12-18T15:00:26.906Z,15.80
2022-12-18T15:03:21.411Z,16.60
2022-12-18T15:06:38.578Z,15.50
2022-12-18T15:09:27.443Z,17.90
2022-12-18T15:12:34.267Z,16.70
2022-12-18T15:15:45.910Z,16.20
2022-12-18T15:18:41.986Z,15.70
2022-12-18T15:21:32.545Z,17.80
2022-12-18T15:24:27.978Z,24.20
2022-12-18T15:27:32.681Z,22.20
2022-12-18T15:30:25.818Z,26.80
2022-12-18T15:33:33.041Z,22.40
2022-12-18T15:36:26.261Z,20.50
2022-12-18T15:39:14.542Z,23.30
2022-12-18T15:42:21.628Z,16.00
2022-12-18T15:45:13.858Z,21.00
2022-12-18T15:48:24.808Z,19.90
2022-12-18T15:51:21.408Z,19.20
2022-12-18T15:54:16.674Z,20.00
2022-12-18T15:57:23.326Z,23.70
2022-12-18T16:00:13.761Z,20.60
2022-12-18T16:03:02.297Z,19.10
2022-12-18T16:05:50.570Z,14.50
2022-12-18T16:08:38.144Z,21.10
2022-12-18T16:11:39.215Z,23.40
2022-12-18T16:14:30.187Z,22.10
2022-12-18T16:17:18.709Z,23.20
2022-12-18T16:20:18.589Z,21.00
2022-12-18T16:23:06.417Z,25.70
2022-12-18T16:25:54.356Z,23.70
2022-12-18T16:28:46.801Z,25.50
2022-12-18T16:31:36.519Z,26.20
2022-12-18T16:34:29.473Z,27.50
2022-12-18T16:37:17.883Z,23.10
2022-12-18T16:40:09.939Z,27.10
2022-12-18T16:42:57.853Z,26.10
2022-12-18T16:45:45.445Z,30.60
2022-12-18T16:48:36.415Z,25.30
2022-12-18T16:51:24.209Z,41.40
2022-12-18T16:54:17.385Z,42.50
2022-12-18T16:57:07.265Z,42.70
2022-12-18T16:59:57.623Z,30.70
2022-12-18T17:02:48.463Z,35.50
2022-12-18T17:05:37.772Z,34.50
2022-12-18T17:08:25.763Z,29.00
2022-12-18T17:11:15.523Z,33.50
2022-12-18T17:14:19.201Z,27.20
2022-12-18T17:17:20.332Z,29.60
2022-12-18T17:20:09.775Z,28.60
2022-12-18T17:22:58.919Z,35.00
2022-12-18T17:25:47.917Z,30.80
2022-12-18T17:28:35.603Z,27.50
2022-12-18T17:31:26.154Z,27.80
2022-12-18T17:34:15.167Z,29.60
2022-12-18T17:37:02.753Z,28.20
2022-12-18T17:39:50.660Z,26.60
2022-12-18T17:42:38.360Z,26.90
2022-12-18T17:45:26.214Z,22.60
2022-12-18T17:48:14.191Z,26.50
2022-12-18T17:51:04.322Z,36.60
2022-12-18T17:53:52.359Z,26.50
2022-12-18T17:56:40.209Z,30.10
2022-12-18T17:59:27.986Z,21.90
2022-12-18T18:02:16.387Z,26.50
2022-12-18T18:05:04.906Z,27.60
2022-12-18T18:07:52.625Z,29.10
2022-12-18T18:10:42.086Z,25.20
2022-12-18T18:13:48.710Z,25.10
2022-12-18T18:16:41.544Z,26.90
2022-12-18T18:19:29.560Z,33.10
2022-12-18T18:22:17.458Z,27.90
2022-12-18T18:25:09.696Z,27.90
2022-12-18T18:27:57.900Z,25.20
2022-12-18T18:30:45.873Z,26.90
2022-12-18T18:33:34.135Z,22.80
2022-12-18T18:36:24.405Z,25.80
2022-12-18T18:39:13.755Z,24.70
2022-12-18T18:42:02.565Z,27.10
2022-12-18T18:44:50.239Z,34.00
2022-12-18T18:47:37.798Z,29.50
2022-12-18T18:50:26.683Z,25.70
2022-12-18T18:53:14.347Z,35.40
2022-12-18T18:56:34.815Z,23.30
2022-12-18T18:59:09.724Z,29.90
2022-12-18T19:01:57.516Z,25.60
2022-12-18T19:04:45.979Z,25.50
2022-12-18T19:07:34.164Z,33.40
2022-12-18T19:10:21.587Z,27.10
2022-12-18T19:13:22.792Z,34.10
2022-12-18T19:16:10.454Z,36.70
2022-12-18T19:19:01.828Z,34.80
2022-12-18T19:21:50.819Z,28.60
2022-12-18T19:24:39.104Z,25.40
2022-12-18T19:27:26.724Z,30.20
2022-12-18T19:30:14.792Z,30.40
2022-12-18T19:33:14.862Z,23.60
2022-12-18T19:36:21.348Z,25.40
2022-12-18T19:39:16.151Z,29.80
2022-12-18T19:42:03.888Z,31.50
2022-12-18T19:44:51.842Z,30.80
2022-12-18T19:47:39.558Z,32.00
2022-12-18T19:50:27.192Z,33.70
2022-12-18T19:53:15.021Z,20.30
2022-12-18T19:56:16.196Z,33.30
2022-12-18T19:59:05.264Z,30.10
2022-12-18T20:01:54.371Z,33.10
2022-12-18T20:04:42.667Z,33.30
2022-12-18T20:07:30.572Z,32.50
2022-12-18T20:10:19.120Z,37.90
2022-12-18T20:13:09.004Z,36.40
2022-12-18T20:15:56.715Z,40.30
2022-12-18T20:18:44.972Z,29.70
2022-12-18T20:21:34.261Z,37.60
2022-12-18T20:24:23.503Z,40.90
2022-12-18T20:27:16.112Z,34.30
2022-12-18T20:30:06.676Z,36.90
2022-12-18T20:32:54.222Z,35.10
2022-12-18T20:35:42.137Z,39.40
2022-12-18T20:38:30.765Z,38.40
2022-12-18T20:41:22.544Z,44.50
2022-12-18T20:44:22.548Z,37.90
2022-12-18T20:47:12.030Z,39.10
2022-12-18T20:50:00.915Z,31.50
2022-12-18T20:52:48.818Z,39.30
2022-12-18T20:55:43.149Z,29.10
2022-12-18T20:58:30.938Z,38.80
2022-12-18T21:01:21.184Z,46.30
2022-12-18T21:04:08.753Z,31.10
2022-12-18T21:07:02.386Z,36.60
2022-12-18T21:09:50.412Z,39.40
2022-12-18T21:12:49.644Z,37.00
2022-12-18T21:15:49.553Z,34.70
2022-12-18T21:18:37.593Z,35.00
2022-12-18T21:21:26.846Z,31.40
2022-12-18T21:24:15.718Z,37.60
2022-12-18T21:27:03.813Z,35.30
2022-12-18T21:29:52.653Z,34.70
2022-12-18T21:32:41.167Z,39.60
2022-12-18T21:35:28.632Z,29.60
2022-12-18T21:38:19.940Z,29.00
2022-12-18T21:41:30.699Z,26.00
2022-12-18T21:44:19.393Z,43.50
2022-12-18T21:47:21.277Z,41.00
2022-12-18T21:50:11.131Z,30.60
2022-12-18T21:52:58.812Z,37.00
2022-12-18T21:55:47.120Z,32.00
2022-12-18T21:58:34.862Z,29.10
2022-12-18T22:01:22.985Z,38.90
2022-12-18T22:04:11.346Z,38.10
2022-12-18T22:07:03.053Z,36.50
2022-12-18T22:09:50.742Z,32.70
2022-12-18T22:12:44.219Z,44.20
2022-12-18T22:15:33.859Z,37.50
2022-12-18T22:18:21.621Z,39.10
2022-12-18T22:21:29.731Z,35.30
2022-12-18T22:24:25.042Z,35.80
2022-12-18T22:27:12.894Z,32.00
2022-12-18T22:30:06.182Z,32.80
2022-12-18T22:32:54.065Z,36.60
2022-12-18T22:35:41.866Z,39.90
2022-12-18T22:38:29.757Z,35.90
2022-12-18T22:41:17.974Z,33.40
2022-12-18T22:44:06.084Z,39.40
2022-12-18T22:47:06.227Z,44.00
2022-12-18T22:49:55.123Z,34.90
2022-12-18T22:52:43.038Z,35.90
2022-12-18T22:55:31.340Z,35.10
2022-12-18T22:58:19.005Z,40.90
2022-12-18T23:01:07.397Z,43.40
2022-12-18T23:03:55.903Z,32.00
2022-12-18T23:06:44.962Z,28.60
2022-12-18T23:09:33.332Z,40.40
2022-12-18T23:12:20.715Z,29.40
2022-12-18T23:15:09.119Z,30.10
2022-12-18T23:17:58.896Z,32.30
2022-12-18T23:20:46.922Z,28.70
2022-12-18T23:23:36.803Z,42.80
2022-12-18T23:26:26.415Z,26.00
2022-12-18T23:29:14.253Z,35.10
2022-12-18T23:32:01.898Z,24.70
2022-12-18T23:34:49.846Z,28.60
2022-12-18T23:37:58.378Z,35.90
2022-12-18T23:40:45.236Z,43.10
2022-12-18T23:43:35.214Z,22.30
2022-12-18T23:46:27.361Z,36.40
2022-12-18T23:49:18.043Z,45.00
2022-12-18T23:52:05.802Z,36.50
2022-12-18T23:54:53.491Z,42.90
2022-12-18T23:57:41.188Z,45.20
